createdAt,value
2022-10-22T00:01:39.982Z,102542.50
2022-10-22T00:04:09.810Z,102537.38
2022-10-22T00:06:39.322Z,102538.91
2022-10-22T00:09:10.592Z,102536.16
2022-10-22T00:11:58.133Z,102532.50
2022-10-22T00:14:44.810Z,102535.16
2022-10-22T00:17:14.791Z,102534.00
2022-10-22T00:19:44.580Z,102529.19
2022-10-22T00:22:31.355Z,102534.69
2022-10-22T00:25:19.769Z,102524.19
2022-10-22T00:28:06.680Z,102530.19
2022-10-22T00:30:36.366Z,102526.09
2022-10-22T00:33:23.506Z,102522.75
2022-10-22T00:36:10.238Z,102516.84
2022-10-22T00:38:57.542Z,102503.97
2022-10-22T00:41:28.625Z,102505.34
2022-10-22T00:58:43.530Z,102480.59
2022-10-22T01:01:18.318Z,102469.56
2022-10-22T01:04:04.992Z,102469.56
2022-10-22T01:06:52.925Z,102465.16
2022-10-22T01:09:49.428Z,102471.63
2022-10-22T01:12:28.328Z,102477.53
2022-10-22T01:15:28.562Z,102471.13
2022-10-22T01:18:21.542Z,102468.88
2022-10-22T01:21:34.583Z,102470.16
2022-10-22T01:24:30.926Z,102466.19
2022-10-22T01:27:48.568Z,102461.19
2022-10-22T01:30:38.741Z,102457.28
2022-10-22T01:33:13.606Z,102466.75
2022-10-22T01:35:47.037Z,102461.41
2022-10-22T01:38:39.025Z,102463.69
2022-10-22T01:41:09.727Z,102467.66
2022-10-22T01:43:56.589Z,102467.66
2022-10-22T01:46:47.032Z,102471.69
2022-10-22T01:49:41.735Z,102468.53
2022-10-22T01:52:22.263Z,102462.72
2022-10-22T01:55:01.205Z,102470.44
2022-10-22T01:57:43.765Z,102469.41
2022-10-22T02:00:34.275Z,102464.84
2022-10-22T02:03:27.980Z,102468.91
2022-10-22T02:06:01.760Z,102466.00
2022-10-22T02:08:35.723Z,102467.88
2022-10-22T02:11:07.153Z,102470.59
2022-10-22T02:13:42.195Z,102473.84
2022-10-22T02:16:35.547Z,102471.94
2022-10-22T02:19:16.137Z,102464.81
2022-10-22T02:22:04.331Z,102469.41
2022-10-22T02:24:36.942Z,102464.50
2022-10-22T02:27:36.741Z,102461.75
2022-10-22T02:30:28.779Z,102472.47
2022-10-22T02:33:06.222Z,102469.84
2022-10-22T02:35:46.476Z,102476.16
2022-10-22T02:38:21.284Z,102476.88
2022-10-22T02:41:09.379Z,102483.03
2022-10-22T02:43:44.367Z,102474.75
2022-10-22T02:46:31.840Z,102477.47
2022-10-22T02:49:19.358Z,102483.19
2022-10-22T02:51:57.381Z,102479.31
2022-10-22T02:54:27.368Z,102478.19
2022-10-22T02:56:57.687Z,102477.28
2022-10-22T02:59:53.705Z,102471.59
2022-10-22T03:02:43.354Z,102475.00
2022-10-22T03:05:14.300Z,102471.47
2022-10-22T03:08:08.427Z,102466.06
2022-10-22T03:10:38.572Z,102470.69
2022-10-22T03:13:27.431Z,102465.78
2022-10-22T03:16:15.828Z,102469.78
2022-10-22T03:19:04.804Z,102462.97
2022-10-22T03:21:56.979Z,102467.53
2022-10-22T03:24:37.759Z,102462.59
2022-10-22T03:27:08.441Z,102452.06
2022-10-22T03:29:41.371Z,102461.09
2022-10-22T03:32:31.664Z,102451.13
2022-10-22T03:35:04.044Z,102457.78
2022-10-22T03:37:52.358Z,102460.69
2022-10-22T03:40:24.625Z,102454.75
2022-10-22T03:42:54.789Z,102450.44
2022-10-22T03:45:41.776Z,102449.59
2022-10-22T03:48:11.452Z,102445.59
2022-10-22T03:50:41.509Z,102436.97
2022-10-22T03:53:29.771Z,102445.94
2022-10-22T03:56:01.384Z,102446.03
2022-10-22T03:58:48.376Z,102437.06
2022-10-22T04:01:18.659Z,102433.66
2022-10-22T04:04:05.149Z,102436.91
2022-10-22T04:06:52.994Z,102437.59
2022-10-22T04:09:22.798Z,102430.28
2022-10-22T04:11:56.740Z,102423.72
2022-10-22T04:29:30.871Z,102434.16
2022-10-22T04:32:00.869Z,102432.09
2022-10-22T04:34:48.428Z,102428.50
2022-10-22T04:37:35.847Z,102428.13
2022-10-22T04:40:06.842Z,102424.72
2022-10-22T04:42:54.006Z,102434.75
2022-10-22T04:45:42.532Z,102437.09
2022-10-22T04:48:12.595Z,102439.06
2022-10-22T04:50:43.065Z,102439.75
2022-10-22T04:53:30.678Z,102440.63
2022-10-22T04:56:10.198Z,102444.25
2022-10-22T04:58:41.378Z,102442.88
2022-10-22T05:01:32.217Z,102445.31
2022-10-22T05:04:22.071Z,102437.50
2022-10-22T05:06:52.614Z,102453.50
2022-10-22T05:09:40.623Z,102441.88
2022-10-22T05:12:35.284Z,102438.59
2022-10-22T05:15:05.301Z,102447.44
2022-10-22T05:17:42.320Z,102445.75
2022-10-22T05:20:14.398Z,102448.28
2022-10-22T05:22:49.657Z,102457.50
2022-10-22T05:25:23.190Z,102452.22
2022-10-22T05:28:04.562Z,102447.38
2022-10-22T05:30:36.426Z,102446.09
2022-10-22T05:33:08.289Z,102443.47
2022-10-22T05:35:39.188Z,102451.34
2022-10-22T05:38:11.917Z,102442.25
2022-10-22T05:40:41.844Z,102448.19
2022-10-22T05:43:13.014Z,102447.53
2022-10-22T05:45:49.452Z,102446.78
2022-10-22T05:48:23.562Z,102454.00
2022-10-22T05:50:55.467Z,102446.53
2022-10-22T05:53:31.760Z,102453.22
2022-10-22T05:56:04.165Z,102441.81
2022-10-22T05:58:36.259Z,102453.78
2022-10-22T06:01:08.889Z,102447.09
2022-10-22T06:03:43.711Z,102455.44
2022-10-22T06:06:30.057Z,102449.59
2022-10-22T06:09:06.808Z,102450.25
2022-10-22T06:11:37.085Z,102434.69
2022-10-22T06:14:08.188Z,102440.50
2022-10-22T06:16:40.974Z,102442.38
2022-10-22T06:19:13.027Z,102442.81
2022-10-22T06:21:43.300Z,102437.75
2022-10-22T06:24:15.397Z,102440.50
2022-10-22T06:26:46.126Z,102438.75
2022-10-22T06:29:16.633Z,102426.78
2022-10-22T06:31:47.248Z,102436.06
2022-10-22T06:34:19.798Z,102428.53
2022-10-22T06:36:51.910Z,102426.91
2022-10-22T06:39:22.431Z,102426.91
2022-10-22T06:41:53.415Z,102421.81
2022-10-22T06:44:25.787Z,102421.19
2022-10-22T06:46:58.548Z,102418.28
2022-10-22T06:49:35.775Z,102423.03
2022-10-22T06:52:15.178Z,102420.59
2022-10-22T06:54:45.700Z,102423.22
2022-10-22T06:57:17.000Z,102417.25
2022-10-22T06:59:48.850Z,102420.47
2022-10-22T07:02:18.921Z,102429.63
2022-10-22T07:04:50.227Z,102431.41
2022-10-22T07:07:28.398Z,102427.16
2022-10-22T07:09:59.293Z,102421.59
2022-10-22T07:12:35.391Z,102425.34
2022-10-22T07:15:11.614Z,102417.69
2022-10-22T07:17:46.183Z,102415.41
2022-10-22T07:20:24.253Z,102406.00
2022-10-22T07:22:57.656Z,102406.31
2022-10-22T07:25:28.207Z,102405.91
2022-10-22T07:28:02.313Z,102409.75
2022-10-22T07:30:34.330Z,102407.19
2022-10-22T07:33:05.695Z,102410.94
2022-10-22T07:35:38.199Z,102413.19
2022-10-22T07:53:01.464Z,102399.53
2022-10-22T07:55:31.764Z,102399.69
2022-10-22T07:58:03.273Z,102395.78
2022-10-22T08:00:33.466Z,102395.97
2022-10-22T08:03:05.580Z,102392.47
2022-10-22T08:05:50.118Z,102381.28
2022-10-22T08:08:39.849Z,102382.72
2022-10-22T08:11:28.459Z,102381.13
2022-10-22T08:14:16.350Z,102382.28
2022-10-22T08:17:10.851Z,102372.19
2022-10-22T08:20:02.326Z,102368.09
2022-10-22T08:22:51.490Z,102372.56
2022-10-22T08:25:43.625Z,102363.91
2022-10-22T08:28:37.775Z,102374.59
2022-10-22T08:31:30.840Z,102373.56
2022-10-22T08:34:19.236Z,102374.13
2022-10-22T08:37:08.902Z,102368.84
2022-10-22T08:39:57.266Z,102370.34
2022-10-22T08:43:02.112Z,102368.09
2022-10-22T08:45:58.318Z,102363.22
2022-10-22T08:48:49.866Z,102349.19
2022-10-22T08:51:40.770Z,102349.69
2022-10-22T08:54:39.057Z,102350.97
2022-10-22T08:57:55.981Z,102354.53
2022-10-22T09:00:48.246Z,102356.19
2022-10-22T09:03:47.491Z,102353.75
2022-10-22T09:06:37.292Z,102350.91
2022-10-22T09:09:29.506Z,102354.22
2022-10-22T09:12:20.562Z,102350.59
2022-10-22T09:15:16.944Z,102336.84
2022-10-22T09:18:24.230Z,102337.72
2022-10-22T09:21:22.516Z,102343.38
2022-10-22T09:24:15.503Z,102340.19
2022-10-22T09:27:09.245Z,102345.63
2022-10-22T09:29:57.425Z,102335.72
2022-10-22T09:32:46.947Z,102333.28
2022-10-22T09:35:37.243Z,102344.84
2022-10-22T09:38:29.037Z,102334.34
2022-10-22T09:41:18.108Z,102334.06
2022-10-22T09:44:10.610Z,102325.00
2022-10-22T09:46:58.489Z,102332.03
2022-10-22T09:49:48.696Z,102326.63
2022-10-22T09:52:36.639Z,102317.44
2022-10-22T09:55:26.915Z,102312.97
2022-10-22T09:58:16.173Z,102316.34
2022-10-22T10:01:04.607Z,102315.44
2022-10-22T10:03:52.480Z,102304.00
2022-10-22T10:06:44.116Z,102309.28
2022-10-22T10:09:37.133Z,102306.38
2022-10-22T10:12:37.798Z,102300.88
2022-10-22T10:15:30.973Z,102299.72
2022-10-22T10:18:27.344Z,102286.88
2022-10-22T10:21:25.758Z,102288.22
2022-10-22T10:24:24.151Z,102298.81
2022-10-22T10:27:14.903Z,102298.00
2022-10-22T10:30:07.422Z,102286.94
2022-10-22T10:33:12.559Z,102298.13
2022-10-22T10:36:06.006Z,102278.25
2022-10-22T10:39:02.077Z,102288.81
2022-10-22T10:42:01.097Z,102287.75
2022-10-22T10:45:09.810Z,102285.06
2022-10-22T10:48:10.056Z,102280.53
2022-10-22T10:51:07.318Z,102285.25
2022-10-22T10:57:46.705Z,102269.91
2022-10-22T11:00:42.600Z,102264.81
2022-10-22T11:04:14.178Z,102260.16
2022-10-22T11:07:11.517Z,102250.28
2022-10-22T11:10:19.487Z,102243.38
2022-10-22T11:32:33.469Z,102192.75
2022-10-22T11:35:24.890Z,102193.78
2022-10-22T11:38:17.957Z,102192.91
2022-10-22T11:41:11.676Z,102192.38
2022-10-22T11:44:09.888Z,102191.34
2022-10-22T11:47:00.621Z,102192.63
2022-10-22T11:49:59.897Z,102189.41
2022-10-22T11:53:03.271Z,102180.75
2022-10-22T11:55:53.012Z,102178.47
2022-10-22T11:58:44.368Z,102179.50
2022-10-22T12:01:43.834Z,102166.78
2022-10-22T12:04:46.121Z,102172.94
2022-10-22T12:07:52.144Z,102172.81
2022-10-22T12:10:58.870Z,102171.09
2022-10-22T12:14:19.325Z,102168.66
2022-10-22T12:17:12.397Z,102175.44
2022-10-22T12:20:04.938Z,102163.78
2022-10-22T12:22:54.840Z,102171.22
2022-10-22T12:25:42.589Z,102178.88
2022-10-22T12:28:30.447Z,102167.59
2022-10-22T12:31:18.518Z,102160.22
2022-10-22T12:34:08.489Z,102167.78
2022-10-22T12:36:57.287Z,102162.91
2022-10-22T12:39:47.373Z,102162.75
2022-10-22T12:42:35.440Z,102158.56
2022-10-22T12:45:23.514Z,102160.53
2022-10-22T12:48:18.815Z,102162.00
2022-10-22T12:51:10.018Z,102144.34
2022-10-22T12:54:02.676Z,102148.31
2022-10-22T12:56:54.811Z,102137.28
2022-10-22T12:59:49.662Z,102137.28
2022-10-22T13:02:38.663Z,102127.88
2022-10-22T13:05:28.119Z,102139.38
2022-10-22T13:08:22.930Z,102125.06
2022-10-22T13:11:12.716Z,102124.19
2022-10-22T13:14:09.557Z,102121.63
2022-10-22T13:17:09.469Z,102115.09
2022-10-22T13:20:05.712Z,102114.59
2022-10-22T13:23:01.455Z,102102.47
2022-10-22T13:26:00.537Z,102107.44
2022-10-22T13:28:55.881Z,102111.41
2022-10-22T13:31:51.811Z,102108.09
2022-10-22T13:34:40.619Z,102111.97
2022-10-22T13:37:32.599Z,102110.56
2022-10-22T13:40:23.790Z,102107.41
2022-10-22T13:43:12.701Z,102096.56
2022-10-22T13:46:02.323Z,102115.69
2022-10-22T13:48:54.631Z,102114.41
2022-10-22T13:51:43.574Z,102106.13
2022-10-22T13:54:31.789Z,102112.53
2022-10-22T13:57:19.494Z,102105.75
2022-10-22T14:00:09.287Z,102105.50
2022-10-22T14:03:01.728Z,102100.09
2022-10-22T14:05:52.209Z,102095.47
2022-10-22T14:08:41.545Z,102093.06
2022-10-22T14:11:31.532Z,102094.69
2022-10-22T14:14:19.684Z,102095.53
2022-10-22T14:17:11.290Z,102091.84
2022-10-22T14:19:59.250Z,102103.78
2022-10-22T14:22:49.302Z,102101.19
2022-10-22T14:25:37.392Z,102105.84
2022-10-22T14:28:25.663Z,102103.38
2022-10-22T14:31:14.460Z,102102.09
2022-10-22T14:34:02.775Z,102088.28
2022-10-22T14:36:52.169Z,102085.81
2022-10-22T14:39:41.824Z,102082.31
2022-10-22T14:42:31.323Z,102070.97
2022-10-22T14:45:21.381Z,102074.00
2022-10-22T14:48:09.227Z,102068.97
2022-10-22T14:50:57.965Z,102075.50
2022-10-22T14:53:45.462Z,102078.63
2022-10-22T14:56:34.871Z,102069.25
2022-10-22T14:59:22.951Z,102072.53
